Time;durP1;ratioP1;P1;durP2;ratioP2;P2;SDS_P1;SDS_P2;PMS_P1;PMS_P2;Temp;Humidity;BMP_temperature;BMP_pressure;BME280_temperature;BME280_humidity;BME280_pressure;Samples;Min_cycle;Max_cycle;Signal;HPM_P1;HPM_P2
2021/12/15 00:02:23;;;;;;;21.27;14.87;;;12.50;83.40;;;15.37;62.30;102606.84;4935921;29;20209;-53
2021/12/15 00:04:54;;;;;;;17.43;12.30;;;12.50;83.30;;;15.37;62.35;102617.47;4938776;29;20217;-54
2021/12/15 00:07:27;;;;;;;18.30;14.13;;;12.50;83.40;;;15.40;62.55;102619.81;4924112;29;20225;-53
2021/12/15 00:09:55;;;;;;;20.27;14.33;;;12.50;83.40;;;15.39;62.30;102612.84;4918283;29;20298;-51
2021/12/15 00:12:25;;;;;;;21.17;14.97;;;12.50;83.30;;;15.37;62.42;102617.47;4918976;29;20560;-52
2021/12/15 00:14:53;;;;;;;20.30;15.03;;;12.50;83.30;;;15.35;62.33;102616.81;4917551;29;20228;-52
2021/12/15 00:17:23;;;;;;;18.07;13.47;;;12.50;83.10;;;15.34;62.53;102615.13;4917323;29;20640;-51
2021/12/15 00:19:52;;;;;;;17.90;12.93;;;12.50;83.10;;;15.35;62.39;102611.50;4917839;29;20194;-52
2021/12/15 00:22:20;;;;;;;14.13;12.00;;;12.50;83.20;;;15.38;62.38;102619.16;4917407;29;20195;-53
2021/12/15 00:24:47;;;;;;;20.80;15.17;;;12.50;83.30;;;15.42;62.33;102617.81;4917236;29;20321;-53
2021/12/15 00:27:15;;;;;;;18.40;13.93;;;12.50;83.20;;;15.44;62.05;102616.72;4917508;29;20191;-53
2021/12/15 00:29:44;;;;;;;19.83;14.60;;;12.50;83.30;;;15.46;62.03;102620.03;4930332;29;20575;-53
2021/12/15 00:32:12;;;;;;;20.07;15.30;;;12.50;83.30;;;15.47;61.92;102610.25;4936472;29;20198;-54
2021/12/15 00:34:40;;;;;;;22.00;14.53;;;12.50;83.50;;;15.47;62.10;102610.25;4936476;29;20577;-53
2021/12/15 00:37:09;;;;;;;20.47;14.93;;;12.50;83.50;;;15.47;61.76;102615.56;4936501;29;20734;-53
2021/12/15 00:39:37;;;;;;;22.97;15.20;;;12.50;83.50;;;15.49;62.26;102613.56;4930065;29;20205;-53
2021/12/15 00:42:05;;;;;;;20.37;14.20;;;12.50;83.50;;;15.49;62.27;102617.06;4918490;29;20698;-52
2021/12/15 00:44:33;;;;;;;21.87;16.43;;;12.50;83.50;;;15.46;62.09;102614.72;4936151;29;20197;-51
2021/12/15 00:47:03;;;;;;;23.23;15.97;;;12.60;83.50;;;15.44;62.20;102622.03;4936256;29;20269;-52
2021/12/15 00:49:33;;;;;;;25.73;17.83;;;12.50;83.40;;;15.44;62.12;102616.72;4939103;29;20178;-51
2021/12/15 00:52:02;;;;;;;24.20;16.03;;;12.60;83.70;;;15.46;62.31;102619.19;4940213;29;20193;-51
2021/12/15 00:54:29;;;;;;;23.17;15.20;;;12.50;83.70;;;15.47;62.40;102615.56;4940298;29;20254;-51
2021/12/15 00:56:58;;;;;;;24.87;16.70;;;12.50;83.70;;;15.46;62.11;102619.19;4933105;29;20216;-54
2021/12/15 00:59:28;;;;;;;23.33;16.27;;;12.50;83.80;;;15.44;62.12;102618.50;4940690;29;20682;-52
2021/12/15 01:01:55;;;;;;;22.97;15.03;;;12.50;83.80;;;15.42;62.49;102617.81;4940372;29;20194;-51
2021/12/15 01:04:29;;;;;;;25.67;15.83;;;12.50;83.80;;;15.44;62.49;102627.31;4940198;29;20198;-54
2021/12/15 01:07:02;;;;;;;23.80;15.97;;;12.60;84.10;;;15.46;62.23;102628.00;4940036;29;20198;-51
2021/12/15 01:09:37;;;;;;;29.10;18.57;;;12.50;84.00;;;15.45;62.39;102623.66;4939875;29;20204;-52
2021/12/15 01:20:34;;;;;;;27.80;17.53;;;12.60;84.10;;;15.36;62.83;102631.72;4920741;29;20218;-54
2021/12/15 01:23:07;;;;;;;26.47;16.57;;;12.60;84.10;;;15.36;62.85;102639.69;4921174;29;20640;-51
2021/12/15 01:25:41;;;;;;;30.00;17.87;;;12.60;84.20;;;15.36;63.10;102635.22;4937671;29;20308;-51
2021/12/15 01:28:10;;;;;;;24.10;16.33;;;12.60;84.30;;;15.40;62.91;102635.75;4939436;29;20217;-52
2021/12/15 01:30:43;;;;;;;24.87;14.83;;;12.50;84.30;;;15.43;62.93;102632.75;4924267;29;20289;-54
2021/12/15 01:33:11;;;;;;;30.83;19.50;;;12.50;84.30;;;15.42;62.96;102641.72;4920422;29;20217;-52
2021/12/15 01:35:45;;;;;;;35.73;20.87;;;12.60;84.30;;;15.42;63.04;102634.59;4920045;29;20211;-51
2021/12/15 01:38:14;;;;;;;31.80;19.77;;;12.60;84.30;;;15.46;62.81;102640.44;4920561;29;20237;-52
2021/12/15 01:40:44;;;;;;;25.97;16.37;;;12.60;84.40;;;15.50;62.90;102633.78;4920933;29;20202;-53
2021/12/15 01:43:24;;;;;;;27.50;17.47;;;12.60;84.50;;;15.55;62.95;102639.47;4921028;29;20293;-51
2021/12/15 01:48:54;;;;;;;31.30;18.57;;;12.60;84.60;;;15.50;62.71;102639.94;4921108;29;20206;-51
2021/12/15 01:51:23;;;;;;;32.40;19.83;;;12.60;84.40;;;15.54;62.97;102645.78;4944087;29;20196;-51
2021/12/15 01:53:51;;;;;;;34.40;19.50;;;12.70;84.50;;;15.55;63.07;102644.78;4940616;29;20344;-52
2021/12/15 01:56:18;;;;;;;25.67;17.47;;;12.70;84.50;;;15.57;62.90;102642.78;4943953;29;20221;-54
2021/12/15 01:58:47;;;;;;;30.10;18.57;;;12.70;84.60;;;15.57;62.81;102642.78;4940451;29;20226;-53
2021/12/15 02:01:16;;;;;;;30.60;19.07;;;12.70;84.60;;;15.58;62.90;102644.47;4938783;29;20194;-54
2021/12/15 02:03:44;;;;;;;32.87;20.47;;;12.70;84.50;;;15.58;62.90;102649.75;4926506;29;20206;-52
2021/12/15 02:06:34;;;;;;;27.73;17.67;;;12.70;84.60;;;15.58;62.57;102641.81;4930688;29;20218;-54
2021/12/15 02:09:02;;;;;;;33.53;21.47;;;12.70;84.70;;;15.56;63.02;102651.75;4902225;29;20195;-53
2021/12/15 02:11:30;;;;;;;36.40;21.47;;;12.70;84.60;;;15.52;63.21;102645.91;4901593;29;20262;-54
2021/12/15 02:13:58;;;;;;;38.77;23.30;;;12.70;84.60;;;15.47;63.50;102642.09;4900765;29;20686;-53
2021/12/15 02:16:25;;;;;;;30.67;20.00;;;12.70;84.70;;;15.46;63.52;102640.44;4900333;29;20223;-53
2021/12/15 02:18:53;;;;;;;39.83;22.53;;;12.70;84.80;;;15.44;63.34;102631.75;4884062;29;20194;-54
2021/12/15 02:21:25;;;;;;;35.63;22.37;;;12.70;84.70;;;15.42;63.42;102631.09;4917998;29;20675;-51
2021/12/15 02:23:57;;;;;;;36.33;20.57;;;12.70;84.70;;;15.44;63.62;102637.06;4900791;29;20203;-53
2021/12/15 02:26:31;;;;;;;34.23;21.30;;;12.70;84.90;;;15.48;63.55;102644.59;4900463;29;20230;-51
2021/12/15 02:29:02;;;;;;;30.87;19.60;;;12.70;85.10;;;15.51;63.32;102643.44;4900577;29;20179;-52
2021/12/15 02:31:54;;;;;;;40.67;23.07;;;12.60;85.10;;;15.54;63.39;102643.13;4900543;29;20196;-52
2021/12/15 02:37:17;;;;;;;34.33;20.10;;;12.70;85.40;;;15.58;63.23;102639.16;4909760;29;20583;-54
2021/12/15 02:39:49;;;;;;;30.43;19.20;;;12.70;85.40;;;15.63;63.42;102634.19;4935588;29;20212;-54
2021/12/15 02:42:19;;;;;;;31.20;20.13;;;12.70;85.40;;;15.67;62.95;102632.03;4937719;29;20186;-52
2021/12/15 02:44:47;;;;;;;37.77;22.90;;;12.70;85.30;;;15.63;63.15;102631.53;4937629;29;20236;-52
2021/12/15 02:47:19;;;;;;;36.83;23.33;;;12.70;85.10;;;15.62;63.29;102637.81;4937865;29;20607;-53
2021/12/15 02:49:54;;;;;;;39.37;21.87;;;12.70;85.20;;;15.61;63.04;102633.53;4937713;29;20216;-52
2021/12/15 02:52:24;;;;;;;34.80;20.20;;;12.70;85.20;;;15.63;63.14;102636.00;4937625;29;20185;-51
2021/12/15 02:54:53;;;;;;;33.47;19.73;;;12.70;85.30;;;15.65;63.57;102629.56;4928791;29;20289;-52
2021/12/15 02:57:21;;;;;;;36.30;22.37;;;12.80;85.30;;;15.67;63.49;102632.88;4937344;29;20225;-54
2021/12/15 03:00:01;;;;;;;39.90;23.60;;;12.80;85.40;;;15.66;62.91;102631.22;4937473;29;20200;-53
2021/12/15 03:05:10;;;;;;;34.13;21.10;;;12.70;85.40;;;15.70;63.18;102631.72;4937453;29;20214;-51
2021/12/15 03:07:47;;;;;;;35.50;22.07;;;12.70;85.40;;;15.71;63.26;102628.91;4937836;29;20213;-51
2021/12/15 03:16:07;;;;;;;30.87;19.70;;;12.70;85.30;;;15.73;63.23;102621.63;4895209;29;20316;-51
2021/12/15 03:18:35;;;;;;;39.67;23.30;;;12.80;85.50;;;15.75;63.00;102619.63;4937432;29;20217;-51
2021/12/15 03:21:07;;;;;;;37.43;21.80;;;12.80;85.30;;;15.75;63.13;102622.28;4937704;29;20194;-51
2021/12/15 03:23:53;;;;;;;31.67;20.57;;;12.80;85.30;;;15.73;63.14;102616.31;4937578;29;20204;-50
2021/12/15 03:26:29;;;;;;;37.77;21.87;;;12.80;85.40;;;15.74;63.30;102623.25;4940390;29;20241;-53
2021/12/15 03:35:00;;;;;;;39.27;23.87;;;12.80;85.40;;;15.73;63.56;102621.63;4936776;29;20696;-53
2021/12/15 03:37:33;;;;;;;43.33;24.50;;;12.80;85.40;;;15.71;63.02;102617.47;4936773;29;20212;-53
2021/12/15 03:40:12;;;;;;;36.53;22.63;;;12.80;85.30;;;15.70;63.42;102618.44;4936875;29;20558;-51
2021/12/15 03:42:45;;;;;;;33.13;21.40;;;12.80;85.30;;;15.71;63.07;102615.66;4935763;29;20194;-51
2021/12/15 03:45:21;;;;;;;36.33;22.53;;;12.80;85.40;;;15.75;63.43;102616.97;4898563;29;20241;-53
2021/12/15 03:47:53;;;;;;;37.00;23.80;;;12.80;85.50;;;15.79;63.33;102620.97;4898780;29;20205;-51
2021/12/15 03:50:24;;;;;;;40.83;24.57;;;12.80;85.50;;;15.83;63.07;102626.78;4898885;29;20195;-51
2021/12/15 03:52:52;;;;;;;39.80;25.87;;;12.80;85.40;;;15.81;63.14;102618.97;4898709;29;20206;-52
2021/12/15 03:55:28;;;;;;;41.40;25.73;;;12.80;85.30;;;15.79;63.25;102623.63;4898435;29;20226;-52
2021/12/15 03:57:57;;;;;;;40.53;25.73;;;12.90;85.30;;;15.75;63.39;102619.63;4898611;29;20218;-51
2021/12/15 04:00:27;;;;;;;35.20;23.10;;;12.90;85.10;;;15.77;63.01;102622.94;4912825;29;20205;-52
2021/12/15 04:02:55;;;;;;;42.00;27.53;;;12.90;85.10;;;15.78;63.37;102623.78;4917238;29;20195;-54
2021/12/15 04:05:24;;;;;;;38.60;25.33;;;12.90;85.10;;;15.79;63.14;102626.28;4917041;29;20306;-54
2021/12/15 04:07:53;;;;;;;41.57;26.93;;;12.90;85.00;;;15.79;63.21;102626.28;4917345;29;20194;-55
2021/12/15 04:10:25;;;;;;;37.47;24.63;;;12.90;84.90;;;15.81;63.74;102632.25;4917421;29;20660;-53
2021/12/15 04:12:53;;;;;;;35.47;23.60;;;12.90;84.80;;;15.85;63.24;102624.81;4917515;29;20198;-52
2021/12/15 04:17:53;;;;;;;32.93;22.53;;;12.90;84.80;;;15.90;62.87;102622.50;4925511;29;20334;-54
2021/12/15 04:20:25;;;;;;;31.30;22.33;;;12.90;84.80;;;15.91;62.74;102624.97;4917222;29;20223;-54
2021/12/15 04:22:53;;;;;;;33.27;22.80;;;13.00;84.90;;;15.95;62.83;102626.31;4916759;29;20282;-53
2021/12/15 04:25:27;;;;;;;33.90;23.80;;;13.00;84.90;;;15.95;62.56;102623.66;4916812;29;20217;-53
2021/12/15 04:27:59;;;;;;;30.23;22.27;;;13.00;84.70;;;15.96;62.71;102627.13;4917088;29;20193;-53
2021/12/15 04:30:28;;;;;;;37.10;25.30;;;13.00;84.70;;;15.96;62.71;102630.63;4917182;29;20609;-52
2021/12/15 04:33:02;;;;;;;33.37;22.50;;;13.00;84.60;;;15.95;62.78;102626.31;4917392;29;20199;-52
2021/12/15 04:35:30;;;;;;;28.77;20.93;;;13.00;84.60;;;15.96;63.02;102624.47;4916599;29;20228;-51
2021/12/15 04:37:57;;;;;;;29.97;20.63;;;13.00;84.60;;;15.98;62.72;102625.16;4916947;29;20575;-52
2021/12/15 04:40:26;;;;;;;34.10;23.17;;;13.00;84.50;;;16.03;62.67;102631.66;4916444;29;20270;-54
2021/12/15 04:42:55;;;;;;;33.53;22.90;;;13.00;84.40;;;16.01;62.41;102625.66;4917154;29;20198;-54
2021/12/15 04:45:23;;;;;;;25.77;19.30;;;13.00;84.40;;;16.02;62.62;102618.53;4916624;29;20222;-53
2021/12/15 04:47:54;;;;;;;29.83;21.23;;;13.10;84.50;;;16.01;62.48;102632.78;4924826;29;20285;-53
2021/12/15 04:50:26;;;;;;;28.67;20.83;;;13.00;84.20;;;16.00;62.31;102626.66;4932246;29;20217;-51
2021/12/15 04:52:58;;;;;;;30.93;21.57;;;13.00;84.10;;;16.04;62.41;102629.81;4916931;29;20199;-54
2021/12/15 04:55:29;;;;;;;31.43;21.83;;;13.00;84.30;;;16.05;62.01;102631.47;4916712;29;20288;-52
2021/12/15 04:57:59;;;;;;;27.70;20.77;;;13.10;84.20;;;16.07;62.32;102635.63;4916804;29;20691;-53
2021/12/15 05:00:32;;;;;;;22.90;17.17;;;13.10;84.30;;;16.09;62.35;102644.25;4916846;29;20595;-53
2021/12/15 05:03:01;;;;;;;25.67;19.03;;;13.10;84.30;;;16.12;62.32;102633.31;4917862;29;20199;-52
2021/12/15 05:05:30;;;;;;;27.30;18.17;;;13.10;84.10;;;16.14;62.07;102630.50;4935509;29;20699;-53
2021/12/15 05:07:58;;;;;;;30.27;20.33;;;13.10;84.00;;;16.15;62.03;102638.31;4924028;29;20608;-53
2021/12/15 05:10:27;;;;;;;25.63;18.80;;;13.10;83.90;;;16.14;61.96;102630.50;4916690;29;20194;-53
2021/12/15 05:12:57;;;;;;;25.90;17.73;;;13.10;83.70;;;16.12;61.97;102628.00;4917001;29;20664;-53
2021/12/15 05:15:26;;;;;;;20.97;15.77;;;13.20;83.70;;;16.11;62.01;102642.28;4916690;29;20225;-53
2021/12/15 05:17:53;;;;;;;23.63;16.93;;;13.20;83.70;;;16.11;62.21;102642.28;4916573;29;20245;-53
2021/12/15 05:20:23;;;;;;;21.43;16.30;;;13.20;83.70;;;16.11;61.84;102638.81;4917110;29;20206;-52
2021/12/15 05:22:51;;;;;;;24.23;18.27;;;13.20;83.50;;;16.10;62.20;102640.63;4916628;29;20651;-54
2021/12/15 05:25:19;;;;;;;20.57;15.60;;;13.20;83.50;;;16.11;62.13;102642.28;4916270;29;20222;-52
2021/12/15 05:27:49;;;;;;;21.17;16.47;;;13.20;83.40;;;16.13;62.04;102647.44;4916166;29;20197;-52
2021/12/15 05:30:18;;;;;;;22.07;16.07;;;13.20;83.40;;;16.14;61.90;102647.25;4916835;29;20194;-53
2021/12/15 05:32:46;;;;;;;21.53;16.80;;;13.20;83.30;;;16.18;61.84;102651.28;4916534;29;20213;-53
2021/12/15 05:35:21;;;;;;;24.70;19.37;;;13.30;83.30;;;16.17;61.44;102654.06;4917555;29;20229;-54
2021/12/15 05:37:50;;;;;;;23.77;17.73;;;13.30;83.10;;;16.13;61.89;102650.94;4919659;29;20218;-54
2021/12/15 05:40:18;;;;;;;24.37;18.53;;;13.30;83.00;;;16.13;61.78;102648.28;4919773;29;20222;-52
2021/12/15 05:42:48;;;;;;;26.40;19.30;;;13.30;83.00;;;16.10;61.65;102651.25;4919820;29;20739;-53
2021/12/15 05:45:16;;;;;;;26.77;19.07;;;13.30;82.80;;;16.01;61.77;102646.91;4919578;29;20214;-53
2021/12/15 05:47:45;;;;;;;22.10;17.80;;;13.30;82.50;;;15.91;61.89;102651.53;4919591;29;20194;-53
2021/12/15 05:50:14;;;;;;;23.40;16.77;;;13.30;82.50;;;15.89;62.07;102647.38;4919657;29;20207;-51
2021/12/15 05:52:42;;;;;;;24.07;17.87;;;13.30;82.50;;;15.93;62.25;102661.97;4929311;29;20197;-55
2021/12/15 05:55:13;;;;;;;20.77;17.00;;;13.20;82.60;;;15.95;62.16;102666.16;4938758;29;20214;-52
2021/12/15 05:57:40;;;;;;;20.40;16.07;;;13.20;82.70;;;15.98;62.19;102659.69;4932511;29;20241;-54
2021/12/15 06:00:14;;;;;;;24.67;18.40;;;13.20;82.90;;;16.01;61.62;102662.84;4919705;29;20208;-53
2021/12/15 06:02:43;;;;;;;23.07;16.60;;;13.20;82.90;;;16.03;61.89;102668.84;4934152;29;20219;-51
2021/12/15 06:05:13;;;;;;;20.97;15.93;;;13.10;82.80;;;16.04;61.61;102674.97;4919212;29;20635;-54
2021/12/15 06:07:43;;;;;;;24.87;18.57;;;13.20;83.00;;;16.05;61.85;102673.97;4921528;29;22348;-55
2021/12/15 06:10:19;;;;;;;22.33;17.77;;;13.10;82.90;;;16.03;61.65;102684.78;4938085;29;20204;-55
2021/12/15 06:12:48;;;;;;;23.20;17.30;;;13.10;82.90;;;16.04;61.50;102690.91;4938047;29;20197;-54
2021/12/15 06:15:22;;;;;;;20.17;16.20;;;13.10;82.80;;;16.04;61.61;102689.09;4926864;29;20220;-53
2021/12/15 06:17:55;;;;;;;20.93;16.57;;;13.20;82.90;;;16.05;61.59;102690.75;4919068;29;20293;-52
2021/12/15 06:20:23;;;;;;;25.33;19.07;;;13.10;82.80;;;16.04;61.45;102694.41;4919233;29;20201;-54
2021/12/15 06:22:54;;;;;;;22.17;17.13;;;13.10;82.80;;;16.03;61.65;102700.72;4918973;29;20261;-52
2021/12/15 06:25:22;;;;;;;23.07;16.70;;;13.10;82.90;;;16.00;61.70;102698.38;4931626;29;20301;-51
2021/12/15 06:27:50;;;;;;;24.23;18.03;;;13.10;82.80;;;16.00;61.78;102698.38;4938123;29;20221;-50
2021/12/15 06:30:19;;;;;;;22.77;17.27;;;13.10;82.90;;;16.03;61.61;102692.75;4937946;29;20240;-52
2021/12/15 06:32:46;;;;;;;24.10;18.23;;;13.10;82.80;;;16.06;61.45;102703.06;4918086;29;20289;-52
2021/12/15 06:35:14;;;;;;;25.10;19.67;;;13.10;82.80;;;16.05;61.68;102684.59;4918406;29;20241;-55
2021/12/15 06:37:42;;;;;;;24.00;18.20;;;13.10;82.80;;;16.03;61.69;102698.06;4918245;29;20278;-51
2021/12/15 06:40:12;;;;;;;21.43;16.73;;;13.20;82.80;;;16.02;61.47;102691.06;4920408;29;20194;-51
2021/12/15 06:42:41;;;;;;;20.67;17.13;;;13.20;82.70;;;16.04;61.70;102699.72;4918968;29;20623;-52
2021/12/15 06:45:15;;;;;;;26.00;19.87;;;13.20;82.70;;;16.02;61.70;102701.69;4918525;29;20316;-53
2021/12/15 06:58:39;;;;;;;25.47;20.23;;;13.30;82.30;;;16.08;61.07;102698.41;4899726;29;20755;-54
2021/12/15 07:01:08;;;;;;;27.23;20.37;;;13.20;82.10;;;16.04;61.02;102713.00;4900738;29;20278;-54
2021/12/15 07:03:38;;;;;;;21.40;17.13;;;13.20;82.10;;;16.05;61.46;102713.81;4899173;29;20202;-55
2021/12/15 07:06:05;;;;;;;22.70;18.17;;;13.20;82.10;;;16.06;61.18;102719.00;4914750;29;20605;-52
2021/12/15 07:08:33;;;;;;;27.07;20.70;;;13.20;82.20;;;16.06;61.31;102720.81;4916687;29;20230;-55
2021/12/15 07:11:03;;;;;;;23.17;19.13;;;13.20;82.00;;;16.03;61.18;102714.00;4918047;29;20282;-55
2021/12/15 07:13:31;;;;;;;22.70;17.83;;;13.20;82.00;;;16.01;61.45;102715.97;4927192;29;20208;-55
2021/12/15 07:16:03;;;;;;;25.63;20.83;;;13.20;82.00;;;16.00;61.29;102709.00;4936030;29;20292;-54
2021/12/15 07:18:43;;;;;;;23.43;18.97;;;13.20;82.00;;;15.98;61.35;102710.97;4936962;29;20683;-54
2021/12/15 07:21:19;;;;;;;29.23;21.67;;;13.20;81.90;;;15.94;61.38;102720.28;4915982;29;20202;-52
2021/12/15 07:23:50;;;;;;;23.97;18.87;;;13.20;81.80;;;15.95;61.15;102711.28;4917625;29;20191;-54
2021/12/15 07:26:19;;;;;;;26.80;20.63;;;13.20;81.90;;;15.96;61.34;102712.13;4917405;29;20222;-54
2021/12/15 07:28:47;;;;;;;29.17;21.97;;;13.20;82.60;;;15.97;61.43;102709.34;4900660;29;20206;-54
2021/12/15 07:31:16;;;;;;;26.93;20.10;;;13.20;81.60;;;15.97;61.18;102704.03;4936254;29;20202;-54
2021/12/15 07:33:45;;;;;;;24.93;20.17;;;13.20;81.90;;;15.98;61.22;102710.97;4936685;29;20198;-53
2021/12/15 07:36:16;;;;;;;33.23;22.73;;;13.20;82.00;;;16.03;61.16;102707.84;4936431;29;20218;-54
2021/12/15 07:38:44;;;;;;;32.30;24.87;;;13.20;82.00;;;16.01;60.98;102710.66;4924288;29;20230;-52
2021/12/15 07:41:27;;;;;;;28.03;21.03;;;13.20;81.80;;;15.99;61.34;102720.63;4931857;29;20228;-52
2021/12/15 07:43:59;;;;;;;30.70;21.87;;;13.20;81.70;;;16.00;61.22;102719.63;4917293;29;20199;-53
2021/12/15 07:46:49;;;;;;;29.60;21.70;;;13.20;81.70;;;16.01;61.15;102725.78;4918397;29;20203;-55
2021/12/15 07:49:18;;;;;;;29.93;23.30;;;13.20;81.70;;;16.03;60.89;102729.09;4900757;29;20179;-56
2021/12/15 07:51:48;;;;;;;32.50;24.23;;;13.20;81.80;;;16.01;60.73;102726.59;4917390;29;20262;-53
2021/12/15 07:54:18;;;;;;;35.07;25.10;;;13.20;81.70;;;15.97;61.03;102730.59;4917349;29;20501;-55
2021/12/15 07:56:47;;;;;;;28.57;21.87;;;13.20;81.70;;;15.98;61.04;102734.06;4934505;29;20293;-53
2021/12/15 07:59:15;;;;;;;32.13;23.67;;;13.20;81.60;;;15.99;61.03;102733.06;4954986;28;20618;-53
2021/12/15 08:01:43;;;;;;;37.67;24.67;;;13.10;81.50;;;16.00;60.74;102730.25;4951242;28;20194;-53
2021/12/15 08:04:11;;;;;;;32.80;23.83;;;13.10;81.50;;;16.02;60.70;102743.38;4936460;29;20190;-52
2021/12/15 08:06:38;;;;;;;34.03;25.47;;;13.10;81.70;;;16.02;60.78;102741.53;4935572;29;20288;-52
2021/12/15 08:09:07;;;;;;;32.43;24.70;;;13.10;81.70;;;16.02;60.96;102740.72;4935829;29;20190;-53
2021/12/15 08:11:35;;;;;;;35.90;26.17;;;13.10;81.80;;;16.01;60.57;102742.53;4938686;29;20197;-53
2021/12/15 08:14:03;;;;;;;34.20;24.43;;;13.10;81.70;;;16.00;60.95;102745.34;4955138;29;20705;-50
2021/12/15 08:16:30;;;;;;;34.57;25.17;;;13.10;81.80;;;15.99;60.69;102749.84;4954626;28;20213;-52
2021/12/15 08:18:58;;;;;;;33.23;23.60;;;13.10;81.80;;;16.01;60.92;102752.34;4954491;28;20604;-52
2021/12/15 08:21:28;;;;;;;34.20;25.33;;;13.10;81.80;;;16.01;60.82;102755.84;4954849;29;20193;-53
2021/12/15 08:23:57;;;;;;;35.80;25.37;;;13.10;81.70;;;16.01;60.68;102750.50;4955056;29;20197;-52
2021/12/15 08:26:27;;;;;;;34.50;24.87;;;13.10;81.70;;;16.00;60.80;102746.19;4954899;28;20264;-52
2021/12/15 08:28:55;;;;;;;32.63;24.23;;;13.10;81.60;;;16.02;60.77;102754.81;4954240;29;20200;-52
2021/12/15 08:31:24;;;;;;;36.40;25.77;;;13.10;81.60;;;16.04;60.51;102763.50;4955382;29;20189;-53
2021/12/15 08:33:52;;;;;;;37.07;25.43;;;13.10;81.60;;;16.02;60.71;102762.78;4954990;28;20264;-52
2021/12/15 08:36:21;;;;;;;39.70;27.37;;;13.20;81.50;;;16.02;60.79;102765.44;4952707;29;20235;-52
2021/12/15 08:38:53;;;;;;;37.03;26.50;;;13.20;81.40;;;16.03;60.44;102763.63;4955029;28;20296;-52
2021/12/15 08:41:29;;;;;;;37.17;25.73;;;13.20;81.40;;;16.04;60.76;102768.81;4956013;29;20204;-53
2021/12/15 08:44:00;;;;;;;31.83;24.30;;;13.20;81.40;;;16.08;60.61;102764.81;4954258;29;20192;-51
2021/12/15 08:46:33;;;;;;;43.87;29.30;;;13.20;81.40;;;16.09;60.68;102776.28;4937722;29;20287;-51
2021/12/15 08:49:02;;;;;;;41.73;28.87;;;13.20;81.40;;;16.09;60.49;102777.09;4938211;29;20311;-51
2021/12/15 08:51:31;;;;;;;39.77;26.77;;;13.20;81.40;;;16.10;60.76;102770.81;4953725;29;20260;-53
2021/12/15 08:54:04;;;;;;;42.10;29.43;;;13.20;81.50;;;16.11;60.16;102777.78;4955846;29;20553;-52
2021/12/15 08:56:34;;;;;;;38.93;28.33;;;13.20;81.30;;;16.11;60.17;102784.94;4956315;29;20300;-51
2021/12/15 08:59:03;;;;;;;40.37;28.73;;;13.20;81.20;;;16.13;60.40;102783.78;4936920;29;20659;-53
2021/12/15 09:01:31;;;;;;;37.57;27.10;;;13.20;81.40;;;16.16;60.40;102786.09;4930533;29;20203;-52
2021/12/15 09:04:00;;;;;;;43.57;29.70;;;13.20;81.40;;;16.16;60.55;102788.75;4917316;29;20530;-53
2021/12/15 09:06:28;;;;;;;42.40;29.33;;;13.20;81.30;;;16.16;60.49;102793.25;4916149;29;20591;-52
2021/12/15 09:08:56;;;;;;;34.20;25.07;;;13.20;81.20;;;16.16;60.33;102780.78;4910796;29;20195;-51
2021/12/15 09:11:27;;;;;;;42.20;28.83;;;13.20;81.20;;;16.15;60.14;102783.59;4907843;29;20221;-50
2021/12/15 09:14:00;;;;;;;42.30;30.30;;;13.30;81.30;;;16.12;60.39;102782.09;4903718;29;20206;-50
2021/12/15 09:16:30;;;;;;;43.07;29.83;;;13.20;81.00;;;16.10;60.38;102789.41;4902896;29;20317;-56
2021/12/15 09:19:00;;;;;;;46.67;31.10;;;13.20;80.90;;;16.10;60.43;102788.56;4903101;29;20855;-55
2021/12/15 09:21:30;;;;;;;42.73;28.67;;;13.20;80.90;;;16.10;60.48;102778.78;4902614;29;20202;-53
2021/12/15 09:24:01;;;;;;;47.50;31.77;;;13.30;81.90;;;16.12;60.58;102787.41;4886947;29;20229;-52
2021/12/15 09:26:30;;;;;;;48.63;31.73;;;13.20;80.90;;;16.14;60.36;102785.41;4902565;29;21090;-54
2021/12/15 09:29:00;;;;;;;39.80;27.40;;;13.20;81.00;;;16.16;60.15;102786.09;4903171;29;20218;-57
2021/12/15 09:31:28;;;;;;;43.53;28.80;;;13.20;81.10;;;16.19;60.20;102788.44;4902536;29;20206;-53
2021/12/15 09:34:01;;;;;;;41.40;28.60;;;13.20;81.10;;;16.19;60.23;102787.59;4902693;29;20285;-55
2021/12/15 09:36:29;;;;;;;41.77;28.63;;;13.30;81.10;;;16.18;60.32;102792.09;4902186;29;20765;-52
2021/12/15 09:39:05;;;;;;;47.97;31.90;;;13.30;81.00;;;16.13;60.27;102783.78;4899100;29;20222;-55
2021/12/15 09:41:33;;;;;;;39.80;28.60;;;13.30;80.70;;;16.15;60.37;102795.06;4900841;29;20225;-53
2021/12/15 09:44:08;;;;;;;49.50;33.47;;;13.30;80.70;;;16.13;59.91;102785.59;4900001;29;20206;-55
2021/12/15 10:06:34;;;;;;;42.97;28.00;;;13.30;80.10;;;16.13;60.08;102799.72;4854904;29;20252;-52
2021/12/15 10:20:04;;;;;;;39.03;26.83;;;13.40;80.00;;;16.32;59.33;102806.59;4916376;29;20321;-53
2021/12/15 10:25:13;;;;;;;40.07;28.77;;;13.40;79.50;;;16.32;59.29;102803.09;4918186;29;20250;-54
2021/12/15 10:27:45;;;;;;;38.70;27.43;;;13.40;79.30;;;16.32;59.48;102798.63;4918028;29;20198;-52
2021/12/15 10:30:25;;;;;;;37.30;26.63;;;13.40;79.30;;;16.34;59.39;102806.41;4918729;29;20543;-53
2021/12/15 10:33:00;;;;;;;37.60;27.50;;;13.40;79.20;;;16.37;59.40;102798.13;4917817;29;20294;-52
2021/12/15 10:35:31;;;;;;;40.33;26.93;;;13.50;79.40;;;16.42;59.26;102809.13;4918121;29;20214;-53
2021/12/15 10:38:24;;;;;;;40.40;26.47;;;13.50;79.10;;;16.41;58.98;102804.78;4928701;29;20581;-54
2021/12/15 10:41:01;;;;;;;39.90;27.20;;;13.50;79.10;;;16.43;58.85;102803.63;4909894;29;20221;-54
2021/12/15 10:43:34;;;;;;;38.53;27.73;;;13.60;78.80;;;16.44;58.71;102796.50;4918537;29;20206;-54
2021/12/15 10:46:07;;;;;;;36.53;25.63;;;13.50;78.60;;;16.45;58.48;102790.19;4919051;29;20218;-53
2021/12/15 10:48:46;;;;;;;35.07;25.07;;;13.60;78.70;;;16.49;58.77;102794.19;4918153;29;20284;-54
2021/12/15 10:51:37;;;;;;;35.53;24.43;;;13.60;78.90;;;16.51;58.37;102792.19;4918123;29;20201;-52
2021/12/15 10:54:09;;;;;;;38.00;26.83;;;13.60;78.80;;;16.58;58.61;102790.56;4914934;29;20203;-52
2021/12/15 10:56:42;;;;;;;37.17;24.93;;;13.60;78.60;;;16.58;58.46;102779.94;4917829;29;20223;-53
2021/12/15 10:59:12;;;;;;;37.70;27.33;;;13.60;78.60;;;16.58;58.35;102774.63;4937027;29;20241;-52
2021/12/15 11:01:52;;;;;;;40.77;28.57;;;13.70;78.20;;;16.59;58.19;102785.06;4936297;29;20221;-53
2021/12/15 11:04:39;;;;;;;34.33;25.50;;;13.70;78.00;;;16.55;57.95;102766.97;4936665;29;20635;-52
2021/12/15 11:07:19;;;;;;;33.73;23.93;;;13.70;77.70;;;16.56;58.33;102765.97;4936141;29;20214;-52
2021/12/15 11:09:52;;;;;;;31.23;23.87;;;13.70;77.90;;;16.63;58.31;102774.97;4947692;29;20535;-52
2021/12/15 11:12:24;;;;;;;39.63;27.30;;;13.70;78.00;;;16.65;57.72;102768.47;4936575;29;20209;-52
2021/12/15 11:14:57;;;;;;;33.23;24.10;;;13.70;77.80;;;16.68;57.94;102784.13;4936064;29;20679;-52
2021/12/15 11:17:33;;;;;;;32.33;24.07;;;13.80;78.10;;;16.70;57.80;102783.94;4936207;29;20229;-53
2021/12/15 11:20:11;;;;;;;35.10;25.10;;;13.80;77.90;;;16.68;57.76;102784.13;4936340;29;20661;-53
2021/12/15 11:22:49;;;;;;;30.90;23.13;;;13.80;77.70;;;16.69;58.06;102774.28;4937015;29;20213;-52
2021/12/15 11:25:34;;;;;;;39.40;27.50;;;13.80;77.80;;;16.70;57.74;102784.78;4940336;29;20703;-53
2021/12/15 11:28:08;;;;;;;33.40;25.60;;;13.80;77.40;;;16.73;57.64;102783.63;4918470;29;20241;-52
2021/12/15 11:30:44;;;;;;;34.60;24.40;;;13.80;77.30;;;16.75;57.63;102787.78;4921372;29;20201;-52
2021/12/15 11:33:16;;;;;;;29.63;22.13;;;13.80;77.50;;;16.78;57.47;102778.66;4920599;29;20209;-54